createdAt,value
2019-03-17T00:01:32.328Z,82.89
2019-03-17T00:04:38.182Z,84.01
2019-03-17T00:07:43.799Z,83.86
2019-03-17T00:10:57.226Z,83.84
2019-03-17T00:14:03.403Z,83.67
2019-03-17T00:17:12.778Z,83.82
2019-03-17T00:20:17.505Z,84.08
2019-03-17T00:23:30.342Z,85.12
2019-03-17T00:26:42.209Z,84.76
2019-03-17T00:33:40.201Z,87.20
2019-03-17T00:36:55.808Z,88.70
2019-03-17T00:40:34.877Z,90.36
2019-03-17T00:44:22.427Z,90.79
2019-03-17T00:48:13.636Z,92.27
2019-03-17T00:51:56.378Z,92.61
2019-03-17T00:55:41.722Z,93.91
2019-03-17T02:05:21.569Z,96.31
2019-03-17T02:08:46.295Z,97.02
2019-03-17T02:12:12.247Z,96.74
2019-03-17T02:18:49.343Z,96.44
2019-03-17T02:22:07.214Z,96.91
2019-03-17T02:25:41.152Z,97.25
2019-03-17T02:29:00.155Z,97.30
2019-03-17T02:32:14.485Z,97.10
2019-03-17T02:35:38.940Z,96.78
2019-03-17T02:38:44.549Z,96.63
2019-03-17T02:42:30.351Z,97.48
2019-03-17T02:45:31.843Z,97.00
2019-03-17T02:48:35.931Z,97.02
2019-03-17T02:51:41.340Z,97.31
2019-03-17T02:54:45.311Z,97.46
2019-03-17T02:57:50.977Z,97.81
2019-03-17T03:01:00.105Z,97.97
2019-03-17T03:04:04.465Z,98.06
2019-03-17T03:11:12.890Z,98.07
2019-03-17T03:14:20.236Z,97.72
2019-03-17T03:17:31.077Z,97.46
2019-03-17T03:20:35.105Z,97.58
2019-03-17T03:23:44.568Z,97.35
2019-03-17T03:26:49.820Z,97.06
2019-03-17T03:29:54.073Z,96.72
2019-03-17T03:32:59.191Z,96.40
2019-03-17T03:36:11.224Z,96.74
2019-03-17T03:39:11.683Z,97.13
2019-03-17T03:42:15.916Z,97.47
2019-03-17T03:45:20.077Z,96.81
2019-03-17T03:48:24.342Z,97.46
2019-03-17T03:51:29.327Z,96.72
2019-03-17T03:54:33.389Z,96.10
2019-03-17T03:57:37.498Z,96.80
2019-03-17T04:00:41.552Z,96.02
2019-03-17T04:03:45.663Z,96.27
2019-03-17T04:06:52.643Z,96.37
2019-03-17T04:09:57.460Z,96.13
2019-03-17T04:13:01.566Z,95.82
2019-03-17T04:16:05.734Z,95.67
2019-03-17T04:19:09.915Z,95.61
2019-03-17T04:22:14.132Z,94.56
2019-03-17T04:25:18.445Z,94.03
2019-03-17T04:28:31.307Z,93.67
2019-03-17T04:32:03.661Z,94.13
2019-03-17T04:35:12.677Z,90.63
2019-03-17T04:38:20.883Z,89.10
2019-03-17T04:41:25.141Z,89.42
2019-03-17T04:44:29.195Z,89.05
2019-03-17T04:47:41.967Z,89.91
2019-03-17T04:58:29.037Z,91.55
2019-03-17T05:01:39.642Z,90.28
2019-03-17T05:04:47.442Z,91.27
2019-03-17T05:07:58.856Z,90.75
2019-03-17T05:11:34.062Z,91.25
2019-03-17T05:40:19.780Z,92.12
2019-03-17T05:44:34.562Z,92.14
2019-03-17T08:21:10.690Z,79.37
2019-03-17T08:34:34.050Z,78.93
2019-03-17T08:37:42.423Z,78.74
2019-03-17T08:40:46.318Z,78.64
2019-03-17T08:43:54.462Z,78.71
2019-03-17T08:46:56.362Z,77.71
2019-03-17T08:50:19.552Z,79.14
2019-03-17T08:53:25.317Z,78.50
2019-03-17T08:56:29.229Z,78.18
2019-03-17T08:59:33.337Z,78.45
2019-03-17T09:02:37.166Z,81.81
2019-03-17T09:05:41.038Z,83.09
2019-03-17T09:08:44.847Z,82.84
2019-03-17T09:11:49.110Z,82.49
2019-03-17T09:14:52.911Z,81.73
2019-03-17T09:17:56.779Z,80.51
2019-03-17T09:21:00.592Z,80.38
2019-03-17T09:24:16.284Z,80.04
2019-03-17T09:27:10.186Z,79.47
2019-03-17T09:30:14.601Z,78.43
2019-03-17T09:33:18.438Z,74.81
2019-03-17T09:36:25.620Z,73.41
2019-03-17T09:39:29.496Z,74.24
2019-03-17T09:42:33.730Z,73.81
2019-03-17T09:45:37.616Z,71.21
2019-03-17T09:48:41.477Z,72.60
2019-03-17T09:51:45.402Z,70.55
2019-03-17T09:54:49.316Z,72.12
2019-03-17T09:57:53.138Z,70.49
2019-03-17T10:00:56.987Z,70.90
2019-03-17T10:04:00.979Z,70.54
2019-03-17T10:07:04.927Z,69.87
2019-03-17T10:10:10.300Z,70.22
2019-03-17T10:13:14.124Z,70.19
2019-03-17T10:16:17.965Z,72.54
2019-03-17T10:19:21.889Z,71.86
2019-03-17T10:22:25.701Z,71.20
2019-03-17T10:25:29.539Z,71.38
2019-03-17T10:28:35.092Z,71.39
2019-03-17T10:31:39.010Z,71.32
2019-03-17T10:34:42.940Z,72.16
2019-03-17T10:37:46.910Z,70.87
2019-03-17T10:40:50.826Z,71.38
2019-03-17T10:43:54.754Z,70.89
2019-03-17T10:46:58.587Z,72.63
2019-03-17T10:50:02.439Z,72.96
2019-03-17T10:53:06.280Z,72.40
2019-03-17T10:56:10.360Z,68.81
2019-03-17T10:59:14.188Z,70.85
2019-03-17T11:02:18.038Z,73.65
2019-03-17T11:05:22.053Z,72.34
2019-03-17T11:08:25.900Z,72.76
2019-03-17T11:11:29.759Z,73.03
2019-03-17T11:14:33.673Z,72.67
2019-03-17T11:17:37.579Z,73.73
2019-03-17T11:20:41.466Z,72.07
2019-03-17T11:23:45.296Z,72.45
2019-03-17T11:26:49.078Z,69.40
2019-03-17T11:29:52.928Z,70.89
2019-03-17T11:32:56.719Z,71.23
2019-03-17T11:36:00.623Z,72.14
2019-03-17T11:39:06.457Z,70.36
2019-03-17T11:42:10.340Z,70.45
2019-03-17T11:45:14.306Z,71.45
2019-03-17T11:48:18.263Z,70.60
2019-03-17T11:51:22.083Z,71.82
2019-03-17T11:54:25.967Z,71.37
2019-03-17T11:57:29.904Z,72.51
2019-03-17T12:00:33.801Z,71.54
2019-03-17T12:03:37.751Z,71.58
2019-03-17T12:06:41.634Z,71.65
2019-03-17T12:09:50.040Z,71.65
2019-03-17T12:12:51.176Z,73.58
2019-03-17T12:15:55.079Z,70.68
2019-03-17T12:18:58.885Z,71.26
2019-03-17T12:22:09.182Z,70.57
2019-03-17T12:25:11.635Z,70.66
2019-03-17T12:28:15.542Z,70.78
2019-03-17T12:31:19.344Z,70.38
2019-03-17T12:34:28.041Z,69.04
2019-03-17T12:37:28.782Z,69.26
2019-03-17T12:40:32.673Z,70.57
2019-03-17T12:43:36.518Z,71.40
2019-03-17T12:46:40.320Z,70.57
2019-03-17T12:49:44.123Z,69.70
2019-03-17T12:52:47.939Z,70.25
2019-03-17T12:55:51.790Z,69.35
2019-03-17T12:58:56.504Z,68.80
2019-03-17T13:02:00.359Z,67.16
2019-03-17T13:05:04.427Z,69.07
2019-03-17T13:08:08.249Z,70.17
2019-03-17T13:11:12.106Z,70.63
2019-03-17T13:14:15.956Z,69.39
2019-03-17T13:17:19.789Z,70.69
2019-03-17T13:20:23.627Z,71.12
2019-03-17T13:23:27.445Z,70.99
2019-03-17T13:26:31.251Z,71.51
2019-03-17T13:29:35.077Z,70.21
2019-03-17T13:32:38.979Z,71.16
2019-03-17T13:35:42.804Z,70.56
2019-03-17T13:38:46.629Z,71.39
2019-03-17T13:41:50.599Z,69.43
2019-03-17T13:44:54.407Z,70.51
2019-03-17T13:47:58.242Z,70.59
2019-03-17T13:51:02.051Z,69.82
2019-03-17T13:54:05.926Z,71.07
2019-03-17T13:57:09.818Z,69.79
2019-03-17T14:00:14.961Z,68.18
2019-03-17T14:03:18.777Z,69.03
2019-03-17T14:06:22.586Z,67.91
2019-03-17T14:09:26.469Z,67.85
2019-03-17T14:12:30.353Z,70.46
2019-03-17T14:15:34.168Z,70.63
2019-03-17T14:18:37.992Z,70.58
2019-03-17T14:21:41.819Z,69.85
2019-03-17T14:24:45.657Z,69.05
2019-03-17T14:27:49.538Z,70.88
2019-03-17T14:30:53.336Z,70.00
2019-03-17T14:33:57.160Z,69.79
2019-03-17T14:37:00.960Z,67.54
2019-03-17T14:40:05.598Z,69.01
2019-03-17T14:43:09.583Z,69.34
2019-03-17T14:46:13.393Z,69.25
2019-03-17T14:49:17.241Z,69.29
2019-03-17T14:52:21.108Z,69.08
2019-03-17T14:55:24.946Z,68.70
2019-03-17T14:58:28.744Z,68.60
2019-03-17T15:01:32.549Z,68.68
2019-03-17T15:04:36.375Z,70.55
2019-03-17T15:07:40.211Z,72.15
2019-03-17T15:10:44.004Z,71.46
2019-03-17T15:13:47.813Z,71.98
2019-03-17T15:16:51.685Z,72.12
2019-03-17T15:19:55.517Z,71.53
2019-03-17T15:22:59.420Z,71.81
2019-03-17T15:26:03.321Z,71.24
2019-03-17T15:29:07.308Z,70.04
2019-03-17T15:32:11.199Z,69.89
2019-03-17T15:35:15.131Z,70.45
2019-03-17T15:38:19.040Z,70.75
2019-03-17T15:41:23.522Z,71.21
2019-03-17T15:44:27.331Z,71.58
2019-03-17T15:47:31.224Z,70.33
2019-03-17T15:50:35.158Z,71.52
2019-03-17T15:53:38.950Z,71.05
2019-03-17T15:56:42.769Z,70.27
2019-03-17T15:59:48.670Z,71.73
2019-03-17T16:02:52.222Z,71.25
2019-03-17T16:05:56.026Z,71.62
2019-03-17T16:08:59.853Z,71.12
2019-03-17T16:12:03.658Z,70.82
2019-03-17T16:15:08.594Z,70.38
2019-03-17T16:18:12.544Z,70.96
2019-03-17T16:21:16.377Z,71.40
2019-03-17T16:24:20.171Z,71.23
2019-03-17T16:27:23.993Z,70.29
2019-03-17T16:30:27.893Z,70.56
2019-03-17T16:33:31.773Z,71.07
2019-03-17T16:36:35.632Z,70.82
2019-03-17T16:39:39.522Z,70.71
2019-03-17T16:42:43.500Z,71.81
2019-03-17T16:45:47.305Z,71.70
2019-03-17T16:48:51.119Z,71.78
2019-03-17T16:51:54.942Z,71.18
2019-03-17T16:54:58.761Z,71.28
2019-03-17T16:58:02.556Z,71.74
2019-03-17T17:01:06.470Z,71.46
2019-03-17T17:04:10.384Z,72.09
2019-03-17T17:07:14.202Z,72.19
2019-03-17T17:10:18.525Z,71.71
2019-03-17T17:13:22.380Z,71.48
2019-03-17T17:16:26.174Z,71.67
2019-03-17T17:19:29.991Z,72.09
2019-03-17T17:22:33.874Z,72.76
2019-03-17T17:25:37.840Z,73.82
2019-03-17T17:28:41.730Z,74.71
2019-03-17T17:31:45.607Z,75.57
2019-03-17T17:34:49.441Z,75.49
2019-03-17T17:37:53.354Z,75.09
2019-03-17T17:40:57.166Z,74.94
2019-03-17T17:44:00.995Z,75.61
2019-03-17T17:47:04.892Z,76.41
2019-03-17T17:50:10.265Z,77.25
2019-03-17T17:53:14.120Z,77.42
2019-03-17T17:56:17.926Z,77.59
2019-03-17T17:59:21.778Z,77.49
2019-03-17T18:02:25.735Z,77.24
2019-03-17T18:05:29.560Z,76.94
2019-03-17T18:08:33.786Z,76.80
2019-03-17T18:11:39.639Z,76.50
2019-03-17T18:14:43.463Z,74.74
2019-03-17T18:17:47.314Z,74.58
2019-03-17T18:20:51.193Z,75.21
2019-03-17T18:23:55.026Z,76.08
2019-03-17T18:26:59.055Z,76.43
2019-03-17T18:30:02.894Z,77.11
2019-03-17T18:33:06.812Z,76.84
2019-03-17T18:36:10.710Z,77.85
2019-03-17T18:39:14.496Z,77.45
2019-03-17T18:42:18.368Z,77.38
2019-03-17T18:45:22.277Z,77.20
2019-03-17T18:48:26.103Z,77.16
2019-03-17T18:51:29.905Z,77.25
2019-03-17T18:54:33.713Z,77.58
2019-03-17T18:57:39.185Z,78.22
2019-03-17T19:00:43.055Z,78.78
2019-03-17T19:03:46.860Z,79.57
2019-03-17T19:06:50.702Z,80.32
2019-03-17T19:09:54.484Z,79.79
2019-03-17T19:12:58.937Z,79.14
2019-03-17T19:16:02.805Z,79.60
2019-03-17T19:19:06.593Z,81.21
2019-03-17T19:22:10.367Z,81.66
2019-03-17T19:25:15.018Z,81.86
2019-03-17T19:28:18.812Z,81.68
2019-03-17T19:31:22.680Z,81.31
2019-03-17T19:34:26.569Z,81.34
2019-03-17T19:37:30.374Z,80.92
2019-03-17T19:40:34.282Z,80.29
2019-03-17T19:43:38.081Z,80.95
2019-03-17T19:46:41.889Z,79.79
2019-03-17T19:49:45.703Z,80.39
2019-03-17T19:52:49.587Z,81.19
2019-03-17T19:55:53.383Z,81.30
2019-03-17T19:58:57.186Z,81.71
2019-03-17T20:02:00.993Z,81.32
2019-03-17T20:05:05.033Z,81.08
2019-03-17T20:08:08.830Z,81.46
2019-03-17T20:11:12.647Z,81.68
2019-03-17T20:14:16.521Z,81.17
2019-03-17T20:17:20.325Z,81.13
2019-03-17T20:20:24.203Z,82.27
2019-03-17T20:23:28.006Z,82.11
2019-03-17T20:26:31.805Z,82.80
2019-03-17T20:29:35.712Z,84.04
2019-03-17T20:32:39.501Z,85.70
2019-03-17T20:35:43.311Z,85.22
2019-03-17T20:38:47.102Z,85.16
2019-03-17T20:41:50.997Z,85.65
2019-03-17T20:44:54.791Z,87.05
2019-03-17T20:47:58.663Z,87.96
2019-03-17T20:51:02.456Z,89.13
2019-03-17T20:54:06.275Z,89.18
2019-03-17T20:57:10.099Z,89.56
2019-03-17T21:00:14.587Z,89.65
2019-03-17T21:03:18.411Z,89.64
2019-03-17T21:06:22.252Z,89.78
2019-03-17T21:09:26.042Z,89.64
2019-03-17T21:12:29.862Z,89.47
2019-03-17T21:15:33.762Z,90.31
2019-03-17T21:18:37.564Z,90.50
2019-03-17T21:21:41.393Z,90.75
2019-03-17T21:24:45.195Z,90.83
2019-03-17T21:27:49.142Z,91.09
2019-03-17T21:30:52.931Z,91.39
2019-03-17T21:33:56.828Z,90.55
2019-03-17T21:37:00.655Z,90.48
2019-03-17T21:40:05.397Z,90.39
2019-03-17T21:43:09.216Z,90.00
2019-03-17T21:46:13.083Z,90.44
2019-03-17T21:49:17.012Z,89.71
2019-03-17T21:52:20.839Z,90.30
2019-03-17T21:55:24.725Z,89.92
2019-03-17T21:58:28.513Z,89.24
2019-03-17T22:01:32.316Z,89.96
2019-03-17T22:04:36.163Z,89.61
2019-03-17T22:07:49.552Z,89.33
2019-03-17T22:10:45.565Z,90.21
2019-03-17T22:13:49.351Z,89.96
2019-03-17T22:16:53.191Z,89.28
2019-03-17T22:19:57.001Z,89.19
2019-03-17T22:23:00.800Z,89.77
2019-03-17T22:26:05.179Z,88.06
2019-03-17T22:29:08.978Z,86.76
2019-03-17T22:32:12.802Z,83.13
2019-03-17T22:35:16.751Z,82.25
2019-03-17T22:38:20.550Z,81.68
2019-03-17T22:41:24.342Z,81.11
2019-03-17T22:44:28.269Z,80.20
2019-03-17T22:47:32.014Z,80.54
2019-03-17T22:50:35.862Z,80.64
2019-03-17T22:53:39.660Z,82.02
2019-03-17T22:56:43.504Z,83.16
2019-03-17T22:59:47.299Z,84.08
2019-03-17T23:02:51.185Z,84.58
2019-03-17T23:05:54.997Z,84.86
2019-03-17T23:08:58.819Z,84.59
2019-03-17T23:12:02.758Z,85.03
2019-03-17T23:15:06.827Z,85.77
2019-03-17T23:18:10.617Z,85.27
2019-03-17T23:21:14.424Z,85.28
2019-03-17T23:24:18.210Z,85.74
2019-03-17T23:27:22.007Z,84.97
2019-03-17T23:30:25.974Z,84.56
2019-03-17T23:33:29.771Z,85.66
2019-03-17T23:36:33.575Z,86.81
2019-03-17T23:39:37.394Z,86.92
2019-03-17T23:42:41.343Z,88.20
2019-03-17T23:45:45.181Z,88.20
2019-03-17T23:48:48.991Z,88.22
2019-03-17T23:51:52.792Z,88.22
2019-03-17T23:54:56.611Z,87.64
2019-03-17T23:58:00.413Z,87.70
